Lake Alma, Canada
Current Conditions -  °F | °C
As of 2:35 AM on Thursday 23 Oct 2014 (Local Time) from KD50 Reporting Station
Unknown Precip Unknown Precip  
Wind Chill: 30°   Ceiling: Unl
Heat Index: 37°   Visibility: 10mi
Dew Point: 36°   Wind: 12mph
Humidity: 93%   Direction: 190°S
Pressure: 29.84"   Gusts: NA
Location:  49.13°N, 104.18°W
Report Text: KD50 230835Z AUTO 19010KT 10SM UP CLR 03/02 A2984 RMK AO2
Loading
Personal Weather Stations






























Interactive Weather Map
Tropical Storm Tracking
New forecast layout! Learn more

10-Day Weather Forecast

Advertisements
Track Severe Weather on mobile